sensor_id;sensor_type;location;lat;lon;timestamp;P1;durP1;ratioP1;P2;durP2;ratioP2
5559;SDS011;2803;47.916;8.074;2022-09-25T00:00:47;5.90;;;3.47;;
5559;SDS011;2803;47.916;8.074;2022-09-25T00:03:17;6.03;;;3.43;;
5559;SDS011;2803;47.916;8.074;2022-09-25T00:05:44;5.73;;;3.57;;
5559;SDS011;2803;47.916;8.074;2022-09-25T00:08:12;3.60;;;2.80;;
5559;SDS011;2803;47.916;8.074;2022-09-25T00:10:39;5.87;;;3.50;;
5559;SDS011;2803;47.916;8.074;2022-09-25T00:13:07;4.57;;;2.90;;
5559;SDS011;2803;47.916;8.074;2022-09-25T00:15:34;4.00;;;3.10;;
5559;SDS011;2803;47.916;8.074;2022-09-25T00:18:01;5.30;;;3.00;;
5559;SDS011;2803;47.916;8.074;2022-09-25T00:20:29;6.10;;;3.17;;
5559;SDS011;2803;47.916;8.074;2022-09-25T00:22:54;5.43;;;3.50;;
5559;SDS011;2803;47.916;8.074;2022-09-25T00:25:22;4.30;;;3.10;;
5559;SDS011;2803;47.916;8.074;2022-09-25T00:27:51;4.27;;;3.17;;
5559;SDS011;2803;47.916;8.074;2022-09-25T00:30:18;4.47;;;3.30;;
5559;SDS011;2803;47.916;8.074;2022-09-25T00:32:45;7.00;;;3.00;;
5559;SDS011;2803;47.916;8.074;2022-09-25T00:35:11;12.03;;;4.07;;
5559;SDS011;2803;47.916;8.074;2022-09-25T00:37:39;9.33;;;3.50;;
5559;SDS011;2803;47.916;8.074;2022-09-25T00:40:06;4.20;;;2.93;;
5559;SDS011;2803;47.916;8.074;2022-09-25T00:42:33;5.60;;;3.00;;
5559;SDS011;2803;47.916;8.074;2022-09-25T00:45:00;4.60;;;2.93;;
5559;SDS011;2803;47.916;8.074;2022-09-25T00:47:38;4.87;;;2.43;;
5559;SDS011;2803;47.916;8.074;2022-09-25T00:50:11;3.80;;;2.70;;
5559;SDS011;2803;47.916;8.074;2022-09-25T00:52:45;3.80;;;3.00;;
5559;SDS011;2803;47.916;8.074;2022-09-25T00:55:13;3.20;;;2.83;;
5559;SDS011;2803;47.916;8.074;2022-09-25T00:57:40;3.03;;;2.40;;
5559;SDS011;2803;47.916;8.074;2022-09-25T01:00:11;5.60;;;2.97;;
5559;SDS011;2803;47.916;8.074;2022-09-25T01:02:39;3.10;;;2.60;;
5559;SDS011;2803;47.916;8.074;2022-09-25T01:05:10;4.33;;;3.00;;
5559;SDS011;2803;47.916;8.074;2022-09-25T01:07:40;3.23;;;2.43;;
5559;SDS011;2803;47.916;8.074;2022-09-25T01:10:09;3.63;;;2.50;;
5559;SDS011;2803;47.916;8.074;2022-09-25T01:12:37;5.40;;;2.63;;
5559;SDS011;2803;47.916;8.074;2022-09-25T01:15:08;4.50;;;2.83;;
5559;SDS011;2803;47.916;8.074;2022-09-25T01:17:38;5.67;;;2.50;;
5559;SDS011;2803;47.916;8.074;2022-09-25T01:20:13;3.20;;;2.70;;
5559;SDS011;2803;47.916;8.074;2022-09-25T01:22:49;7.53;;;3.10;;
5559;SDS011;2803;47.916;8.074;2022-09-25T01:25:37;3.20;;;2.53;;
5559;SDS011;2803;47.916;8.074;2022-09-25T01:28:16;4.00;;;2.97;;
5559;SDS011;2803;47.916;8.074;2022-09-25T01:30:56;4.77;;;3.00;;
5559;SDS011;2803;47.916;8.074;2022-09-25T01:33:40;3.60;;;3.30;;
5559;SDS011;2803;47.916;8.074;2022-09-25T01:36:13;4.50;;;2.90;;
5559;SDS011;2803;47.916;8.074;2022-09-25T01:38:44;3.53;;;2.43;;
5559;SDS011;2803;47.916;8.074;2022-09-25T01:41:16;4.60;;;2.90;;
5559;SDS011;2803;47.916;8.074;2022-09-25T01:43:47;3.33;;;2.67;;
5559;SDS011;2803;47.916;8.074;2022-09-25T01:46:19;3.20;;;2.57;;
5559;SDS011;2803;47.916;8.074;2022-09-25T01:48:49;4.03;;;2.40;;
5559;SDS011;2803;47.916;8.074;2022-09-25T01:51:21;4.70;;;2.53;;
5559;SDS011;2803;47.916;8.074;2022-09-25T01:53:52;3.90;;;2.30;;
5559;SDS011;2803;47.916;8.074;2022-09-25T01:56:22;3.13;;;2.53;;
5559;SDS011;2803;47.916;8.074;2022-09-25T01:58:57;3.37;;;2.23;;
5559;SDS011;2803;47.916;8.074;2022-09-25T02:01:31;3.97;;;2.50;;
5559;SDS011;2803;47.916;8.074;2022-09-25T02:04:04;5.17;;;2.70;;
5559;SDS011;2803;47.916;8.074;2022-09-25T02:06:33;2.70;;;2.37;;
5559;SDS011;2803;47.916;8.074;2022-09-25T02:09:04;3.27;;;2.57;;
5559;SDS011;2803;47.916;8.074;2022-09-25T02:11:34;3.37;;;2.43;;
5559;SDS011;2803;47.916;8.074;2022-09-25T02:14:06;5.50;;;2.40;;
5559;SDS011;2803;47.916;8.074;2022-09-25T02:16:39;4.10;;;2.40;;
5559;SDS011;2803;47.916;8.074;2022-09-25T02:19:07;2.57;;;2.13;;
5559;SDS011;2803;47.916;8.074;2022-09-25T02:21:51;2.90;;;2.33;;
5559;SDS011;2803;47.916;8.074;2022-09-25T02:24:30;2.33;;;2.13;;
5559;SDS011;2803;47.916;8.074;2022-09-25T02:27:03;2.77;;;2.13;;
5559;SDS011;2803;47.916;8.074;2022-09-25T02:29:30;3.20;;;2.67;;
5559;SDS011;2803;47.916;8.074;2022-09-25T02:31:59;3.90;;;2.70;;
5559;SDS011;2803;47.916;8.074;2022-09-25T02:34:30;3.00;;;2.07;;
5559;SDS011;2803;47.916;8.074;2022-09-25T02:36:57;7.60;;;2.80;;
5559;SDS011;2803;47.916;8.074;2022-09-25T02:39:24;3.17;;;2.20;;
5559;SDS011;2803;47.916;8.074;2022-09-25T02:41:57;3.50;;;2.17;;
5559;SDS011;2803;47.916;8.074;2022-09-25T02:44:36;2.30;;;2.10;;
5559;SDS011;2803;47.916;8.074;2022-09-25T02:47:18;4.70;;;2.20;;
5559;SDS011;2803;47.916;8.074;2022-09-25T02:49:52;3.30;;;2.53;;
5559;SDS011;2803;47.916;8.074;2022-09-25T02:52:26;4.03;;;2.20;;
5559;SDS011;2803;47.916;8.074;2022-09-25T02:55:01;6.53;;;2.93;;
5559;SDS011;2803;47.916;8.074;2022-09-25T02:57:34;3.23;;;2.70;;
5559;SDS011;2803;47.916;8.074;2022-09-25T03:00:07;3.90;;;2.83;;
5559;SDS011;2803;47.916;8.074;2022-09-25T03:02:36;3.13;;;2.40;;
5559;SDS011;2803;47.916;8.074;2022-09-25T03:05:04;6.80;;;2.30;;
5559;SDS011;2803;47.916;8.074;2022-09-25T03:07:32;3.77;;;2.30;;
5559;SDS011;2803;47.916;8.074;2022-09-25T03:10:19;3.60;;;1.77;;
5559;SDS011;2803;47.916;8.074;2022-09-25T03:12:46;2.03;;;1.83;;
5559;SDS011;2803;47.916;8.074;2022-09-25T03:15:12;2.40;;;2.20;;
5559;SDS011;2803;47.916;8.074;2022-09-25T03:17:40;2.87;;;2.30;;
5559;SDS011;2803;47.916;8.074;2022-09-25T03:20:07;3.87;;;2.07;;
5559;SDS011;2803;47.916;8.074;2022-09-25T03:22:34;2.57;;;2.37;;
5559;SDS011;2803;47.916;8.074;2022-09-25T03:25:01;6.80;;;2.90;;
5559;SDS011;2803;47.916;8.074;2022-09-25T03:27:28;5.00;;;2.57;;
5559;SDS011;2803;47.916;8.074;2022-09-25T03:29:55;2.67;;;2.47;;
5559;SDS011;2803;47.916;8.074;2022-09-25T03:32:21;3.13;;;2.50;;
5559;SDS011;2803;47.916;8.074;2022-09-25T03:34:49;3.70;;;2.90;;
5559;SDS011;2803;47.916;8.074;2022-09-25T03:37:16;4.43;;;2.40;;
5559;SDS011;2803;47.916;8.074;2022-09-25T03:39:42;3.30;;;2.70;;
5559;SDS011;2803;47.916;8.074;2022-09-25T03:42:09;2.33;;;2.13;;
5559;SDS011;2803;47.916;8.074;2022-09-25T03:44:35;6.43;;;2.67;;
5559;SDS011;2803;47.916;8.074;2022-09-25T03:47:02;3.80;;;2.20;;
5559;SDS011;2803;47.916;8.074;2022-09-25T03:49:29;4.10;;;2.10;;
5559;SDS011;2803;47.916;8.074;2022-09-25T03:51:57;3.60;;;2.70;;
5559;SDS011;2803;47.916;8.074;2022-09-25T03:54:24;2.63;;;2.30;;
5559;SDS011;2803;47.916;8.074;2022-09-25T03:56:50;2.77;;;2.10;;
5559;SDS011;2803;47.916;8.074;2022-09-25T03:59:17;3.57;;;2.90;;
5559;SDS011;2803;47.916;8.074;2022-09-25T04:01:43;4.60;;;2.27;;
5559;SDS011;2803;47.916;8.074;2022-09-25T04:04:11;2.40;;;2.20;;
5559;SDS011;2803;47.916;8.074;2022-09-25T04:06:38;3.10;;;2.47;;
5559;SDS011;2803;47.916;8.074;2022-09-25T04:09:06;3.90;;;2.80;;
5559;SDS011;2803;47.916;8.074;2022-09-25T04:11:32;3.90;;;2.70;;
5559;SDS011;2803;47.916;8.074;2022-09-25T04:14:02;5.40;;;2.90;;
5559;SDS011;2803;47.916;8.074;2022-09-25T04:16:28;3.57;;;2.60;;
5559;SDS011;2803;47.916;8.074;2022-09-25T04:18:55;4.23;;;2.87;;
5559;SDS011;2803;47.916;8.074;2022-09-25T04:21:22;4.00;;;2.43;;
5559;SDS011;2803;47.916;8.074;2022-09-25T04:23:49;4.10;;;2.20;;
5559;SDS011;2803;47.916;8.074;2022-09-25T04:26:31;2.23;;;2.00;;
5559;SDS011;2803;47.916;8.074;2022-09-25T04:28:58;3.10;;;2.40;;
5559;SDS011;2803;47.916;8.074;2022-09-25T04:31:26;4.57;;;2.37;;
5559;SDS011;2803;47.916;8.074;2022-09-25T04:33:53;4.30;;;2.90;;
5559;SDS011;2803;47.916;8.074;2022-09-25T04:36:18;4.53;;;2.90;;
5559;SDS011;2803;47.916;8.074;2022-09-25T04:38:45;5.70;;;2.77;;
5559;SDS011;2803;47.916;8.074;2022-09-25T04:41:12;3.13;;;2.40;;
5559;SDS011;2803;47.916;8.074;2022-09-25T04:43:41;4.23;;;2.03;;
5559;SDS011;2803;47.916;8.074;2022-09-25T04:46:08;3.23;;;2.60;;
5559;SDS011;2803;47.916;8.074;2022-09-25T04:48:36;5.63;;;3.10;;
5559;SDS011;2803;47.916;8.074;2022-09-25T04:51:03;2.97;;;2.50;;
5559;SDS011;2803;47.916;8.074;2022-09-25T04:53:31;4.73;;;2.97;;
5559;SDS011;2803;47.916;8.074;2022-09-25T04:56:00;3.40;;;2.87;;
5559;SDS011;2803;47.916;8.074;2022-09-25T04:58:27;5.50;;;3.30;;
5559;SDS011;2803;47.916;8.074;2022-09-25T05:00:59;4.77;;;3.33;;
5559;SDS011;2803;47.916;8.074;2022-09-25T05:03:26;4.57;;;3.20;;
5559;SDS011;2803;47.916;8.074;2022-09-25T05:05:53;6.90;;;3.60;;
5559;SDS011;2803;47.916;8.074;2022-09-25T05:08:20;5.10;;;3.50;;
5559;SDS011;2803;47.916;8.074;2022-09-25T05:10:47;5.00;;;3.13;;
5559;SDS011;2803;47.916;8.074;2022-09-25T05:13:14;18.17;;;3.30;;
5559;SDS011;2803;47.916;8.074;2022-09-25T05:15:40;5.20;;;3.57;;
5559;SDS011;2803;47.916;8.074;2022-09-25T05:18:11;5.10;;;2.90;;
5559;SDS011;2803;47.916;8.074;2022-09-25T05:20:40;3.53;;;3.10;;
5559;SDS011;2803;47.916;8.074;2022-09-25T05:23:07;4.00;;;3.07;;
5559;SDS011;2803;47.916;8.074;2022-09-25T05:25:34;5.73;;;3.13;;
5559;SDS011;2803;47.916;8.074;2022-09-25T05:28:01;10.53;;;3.17;;
5559;SDS011;2803;47.916;8.074;2022-09-25T05:30:28;3.40;;;2.93;;
5559;SDS011;2803;47.916;8.074;2022-09-25T05:32:55;4.03;;;3.30;;
5559;SDS011;2803;47.916;8.074;2022-09-25T05:35:25;3.70;;;2.77;;
5559;SDS011;2803;47.916;8.074;2022-09-25T05:37:53;6.90;;;3.43;;
5559;SDS011;2803;47.916;8.074;2022-09-25T05:40:20;3.70;;;2.80;;
5559;SDS011;2803;47.916;8.074;2022-09-25T05:42:47;5.20;;;2.83;;
5559;SDS011;2803;47.916;8.074;2022-09-25T05:45:15;3.20;;;2.60;;
5559;SDS011;2803;47.916;8.074;2022-09-25T05:47:43;2.50;;;2.13;;
5559;SDS011;2803;47.916;8.074;2022-09-25T05:50:10;3.57;;;2.80;;
5559;SDS011;2803;47.916;8.074;2022-09-25T05:52:40;5.13;;;3.10;;
5559;SDS011;2803;47.916;8.074;2022-09-25T05:55:07;3.40;;;2.70;;
5559;SDS011;2803;47.916;8.074;2022-09-25T05:57:34;3.63;;;2.97;;
5559;SDS011;2803;47.916;8.074;2022-09-25T06:00:02;5.53;;;2.70;;
5559;SDS011;2803;47.916;8.074;2022-09-25T06:02:30;4.10;;;2.80;;
5559;SDS011;2803;47.916;8.074;2022-09-25T06:04:57;4.80;;;2.93;;
5559;SDS011;2803;47.916;8.074;2022-09-25T06:07:23;4.03;;;2.73;;
5559;SDS011;2803;47.916;8.074;2022-09-25T06:09:51;4.70;;;3.33;;
5559;SDS011;2803;47.916;8.074;2022-09-25T06:12:18;2.47;;;2.27;;
5559;SDS011;2803;47.916;8.074;2022-09-25T06:14:47;4.90;;;2.57;;
5559;SDS011;2803;47.916;8.074;2022-09-25T06:17:13;5.43;;;3.50;;
5559;SDS011;2803;47.916;8.074;2022-09-25T06:19:40;4.87;;;3.17;;
5559;SDS011;2803;47.916;8.074;2022-09-25T06:22:07;2.97;;;2.67;;
5559;SDS011;2803;47.916;8.074;2022-09-25T06:24:33;3.83;;;2.80;;
5559;SDS011;2803;47.916;8.074;2022-09-25T06:27:01;5.97;;;3.00;;
5559;SDS011;2803;47.916;8.074;2022-09-25T06:29:28;4.07;;;2.67;;
5559;SDS011;2803;47.916;8.074;2022-09-25T06:31:54;5.73;;;3.40;;
5559;SDS011;2803;47.916;8.074;2022-09-25T06:34:21;5.40;;;3.60;;
5559;SDS011;2803;47.916;8.074;2022-09-25T06:36:47;3.50;;;2.97;;
5559;SDS011;2803;47.916;8.074;2022-09-25T06:39:14;3.27;;;2.43;;
5559;SDS011;2803;47.916;8.074;2022-09-25T06:41:41;7.03;;;3.07;;
5559;SDS011;2803;47.916;8.074;2022-09-25T06:44:09;7.90;;;3.20;;
5559;SDS011;2803;47.916;8.074;2022-09-25T06:46:35;2.97;;;2.63;;
5559;SDS011;2803;47.916;8.074;2022-09-25T06:49:02;3.93;;;2.80;;
5559;SDS011;2803;47.916;8.074;2022-09-25T06:51:32;4.90;;;3.27;;
5559;SDS011;2803;47.916;8.074;2022-09-25T06:54:00;3.80;;;2.67;;
5559;SDS011;2803;47.916;8.074;2022-09-25T06:56:26;4.53;;;3.87;;
5559;SDS011;2803;47.916;8.074;2022-09-25T06:58:53;5.97;;;3.13;;
5559;SDS011;2803;47.916;8.074;2022-09-25T07:01:21;5.30;;;2.97;;
5559;SDS011;2803;47.916;8.074;2022-09-25T07:03:47;5.70;;;3.17;;
5559;SDS011;2803;47.916;8.074;2022-09-25T07:06:14;4.33;;;3.40;;
5559;SDS011;2803;47.916;8.074;2022-09-25T07:08:42;5.03;;;2.80;;
5559;SDS011;2803;47.916;8.074;2022-09-25T07:11:10;3.23;;;2.90;;
5559;SDS011;2803;47.916;8.074;2022-09-25T07:13:39;3.80;;;3.33;;
5559;SDS011;2803;47.916;8.074;2022-09-25T07:16:07;3.83;;;3.20;;
5559;SDS011;2803;47.916;8.074;2022-09-25T07:18:38;6.60;;;3.80;;
5559;SDS011;2803;47.916;8.074;2022-09-25T07:21:05;3.27;;;2.90;;
5559;SDS011;2803;47.916;8.074;2022-09-25T07:23:33;4.30;;;3.30;;
5559;SDS011;2803;47.916;8.074;2022-09-25T07:26:04;3.20;;;2.90;;
5559;SDS011;2803;47.916;8.074;2022-09-25T07:28:33;3.53;;;2.77;;
5559;SDS011;2803;47.916;8.074;2022-09-25T07:31:08;3.10;;;2.60;;
5559;SDS011;2803;47.916;8.074;2022-09-25T07:33:37;8.57;;;3.37;;
5559;SDS011;2803;47.916;8.074;2022-09-25T07:36:04;5.20;;;3.03;;
5559;SDS011;2803;47.916;8.074;2022-09-25T07:38:31;4.47;;;3.43;;
5559;SDS011;2803;47.916;8.074;2022-09-25T07:40:58;5.03;;;3.57;;
5559;SDS011;2803;47.916;8.074;2022-09-25T07:43:24;7.50;;;3.30;;
5559;SDS011;2803;47.916;8.074;2022-09-25T07:45:51;4.90;;;3.40;;
5559;SDS011;2803;47.916;8.074;2022-09-25T07:48:18;5.50;;;3.30;;
5559;SDS011;2803;47.916;8.074;2022-09-25T07:50:48;4.20;;;3.27;;
5559;SDS011;2803;47.916;8.074;2022-09-25T07:53:15;3.57;;;3.10;;
5559;SDS011;2803;47.916;8.074;2022-09-25T07:55:43;9.13;;;3.33;;
5559;SDS011;2803;47.916;8.074;2022-09-25T07:58:09;4.57;;;3.27;;
5559;SDS011;2803;47.916;8.074;2022-09-25T08:00:36;5.60;;;3.93;;
5559;SDS011;2803;47.916;8.074;2022-09-25T08:03:04;6.43;;;3.70;;
5559;SDS011;2803;47.916;8.074;2022-09-25T08:05:30;8.90;;;3.07;;
5559;SDS011;2803;47.916;8.074;2022-09-25T08:07:58;5.80;;;3.90;;
5559;SDS011;2803;47.916;8.074;2022-09-25T08:10:25;5.23;;;3.80;;
5559;SDS011;2803;47.916;8.074;2022-09-25T08:12:51;9.10;;;4.07;;
5559;SDS011;2803;47.916;8.074;2022-09-25T08:15:18;5.33;;;3.70;;
5559;SDS011;2803;47.916;8.074;2022-09-25T08:17:44;4.77;;;3.67;;
5559;SDS011;2803;47.916;8.074;2022-09-25T08:20:11;5.33;;;3.83;;
5559;SDS011;2803;47.916;8.074;2022-09-25T08:22:38;5.07;;;3.63;;
5559;SDS011;2803;47.916;8.074;2022-09-25T08:25:06;6.83;;;3.80;;
5559;SDS011;2803;47.916;8.074;2022-09-25T08:27:34;7.27;;;4.10;;
5559;SDS011;2803;47.916;8.074;2022-09-25T08:30:03;8.13;;;4.57;;
5559;SDS011;2803;47.916;8.074;2022-09-25T08:32:32;20.43;;;5.23;;
5559;SDS011;2803;47.916;8.074;2022-09-25T08:34:58;7.47;;;4.87;;
5559;SDS011;2803;47.916;8.074;2022-09-25T08:37:26;10.33;;;4.60;;
5559;SDS011;2803;47.916;8.074;2022-09-25T08:39:53;7.60;;;5.30;;
5559;SDS011;2803;47.916;8.074;2022-09-25T08:42:23;8.17;;;5.00;;
5559;SDS011;2803;47.916;8.074;2022-09-25T08:44:54;6.27;;;4.73;;
5559;SDS011;2803;47.916;8.074;2022-09-25T08:47:36;6.87;;;5.23;;
5559;SDS011;2803;47.916;8.074;2022-09-25T08:50:19;6.90;;;5.17;;
5559;SDS011;2803;47.916;8.074;2022-09-25T08:52:48;6.90;;;4.77;;
5559;SDS011;2803;47.916;8.074;2022-09-25T08:55:21;9.60;;;5.40;;
5559;SDS011;2803;47.916;8.074;2022-09-25T08:58:13;9.13;;;5.83;;
5559;SDS011;2803;47.916;8.074;2022-09-25T09:00:48;8.83;;;5.47;;
5559;SDS011;2803;47.916;8.074;2022-09-25T09:03:16;7.20;;;5.23;;
5559;SDS011;2803;47.916;8.074;2022-09-25T09:05:43;9.30;;;4.70;;
5559;SDS011;2803;47.916;8.074;2022-09-25T09:08:11;6.00;;;4.20;;
5559;SDS011;2803;47.916;8.074;2022-09-25T09:10:42;7.23;;;4.50;;
5559;SDS011;2803;47.916;8.074;2022-09-25T09:13:15;11.80;;;5.00;;
5559;SDS011;2803;47.916;8.074;2022-09-25T09:15:47;7.90;;;4.63;;
5559;SDS011;2803;47.916;8.074;2022-09-25T09:18:22;7.07;;;4.40;;
5559;SDS011;2803;47.916;8.074;2022-09-25T09:20:51;4.20;;;3.53;;
5559;SDS011;2803;47.916;8.074;2022-09-25T09:23:19;6.73;;;3.20;;
5559;SDS011;2803;47.916;8.074;2022-09-25T09:25:49;5.77;;;3.90;;
5559;SDS011;2803;47.916;8.074;2022-09-25T09:28:32;5.47;;;3.17;;
5559;SDS011;2803;47.916;8.074;2022-09-25T09:31:21;6.30;;;3.50;;
5559;SDS011;2803;47.916;8.074;2022-09-25T09:33:54;3.47;;;3.00;;
5559;SDS011;2803;47.916;8.074;2022-09-25T09:36:28;4.40;;;3.17;;
5559;SDS011;2803;47.916;8.074;2022-09-25T09:39:10;4.37;;;3.40;;
5559;SDS011;2803;47.916;8.074;2022-09-25T09:41:45;3.97;;;2.93;;
5559;SDS011;2803;47.916;8.074;2022-09-25T09:44:24;5.53;;;2.87;;
5559;SDS011;2803;47.916;8.074;2022-09-25T09:47:15;4.50;;;2.93;;
5559;SDS011;2803;47.916;8.074;2022-09-25T09:49:55;6.27;;;3.30;;
5559;SDS011;2803;47.916;8.074;2022-09-25T09:52:27;3.60;;;2.70;;
5559;SDS011;2803;47.916;8.074;2022-09-25T09:55:01;3.30;;;2.50;;
5559;SDS011;2803;47.916;8.074;2022-09-25T09:57:41;4.00;;;2.70;;
5559;SDS011;2803;47.916;8.074;2022-09-25T10:00:13;4.20;;;3.03;;
5559;SDS011;2803;47.916;8.074;2022-09-25T10:02:42;6.07;;;3.90;;
5559;SDS011;2803;47.916;8.074;2022-09-25T10:05:14;4.50;;;2.70;;
5559;SDS011;2803;47.916;8.074;2022-09-25T10:07:45;2.80;;;2.50;;
5559;SDS011;2803;47.916;8.074;2022-09-25T10:10:15;4.33;;;3.00;;
5559;SDS011;2803;47.916;8.074;2022-09-25T10:12:44;4.43;;;3.00;;
5559;SDS011;2803;47.916;8.074;2022-09-25T10:15:17;4.97;;;2.63;;
5559;SDS011;2803;47.916;8.074;2022-09-25T10:17:51;4.70;;;3.33;;
5559;SDS011;2803;47.916;8.074;2022-09-25T10:20:19;3.23;;;2.43;;
5559;SDS011;2803;47.916;8.074;2022-09-25T10:22:49;2.33;;;2.07;;
5559;SDS011;2803;47.916;8.074;2022-09-25T10:25:32;4.40;;;3.53;;
5559;SDS011;2803;47.916;8.074;2022-09-25T10:28:05;5.07;;;3.20;;
5559;SDS011;2803;47.916;8.074;2022-09-25T10:30:48;3.60;;;3.07;;
5559;SDS011;2803;47.916;8.074;2022-09-25T10:33:17;4.33;;;3.00;;
5559;SDS011;2803;47.916;8.074;2022-09-25T10:35:46;4.27;;;2.53;;
5559;SDS011;2803;47.916;8.074;2022-09-25T10:38:16;4.30;;;3.40;;
5559;SDS011;2803;47.916;8.074;2022-09-25T10:40:55;4.23;;;3.30;;
5559;SDS011;2803;47.916;8.074;2022-09-25T10:43:24;5.07;;;3.40;;
5559;SDS011;2803;47.916;8.074;2022-09-25T10:46:03;5.17;;;3.13;;
5559;SDS011;2803;47.916;8.074;2022-09-25T10:48:32;4.00;;;2.90;;
5559;SDS011;2803;47.916;8.074;2022-09-25T10:51:14;4.10;;;2.80;;
5559;SDS011;2803;47.916;8.074;2022-09-25T10:53:42;4.97;;;3.20;;
5559;SDS011;2803;47.916;8.074;2022-09-25T10:56:10;8.00;;;3.60;;
5559;SDS011;2803;47.916;8.074;2022-09-25T10:58:41;6.10;;;3.67;;
5559;SDS011;2803;47.916;8.074;2022-09-25T11:01:10;7.13;;;3.07;;
5559;SDS011;2803;47.916;8.074;2022-09-25T11:03:42;6.87;;;3.50;;
5559;SDS011;2803;47.916;8.074;2022-09-25T11:06:17;5.97;;;3.27;;
5559;SDS011;2803;47.916;8.074;2022-09-25T11:08:48;5.80;;;3.40;;
5559;SDS011;2803;47.916;8.074;2022-09-25T11:11:24;5.50;;;4.20;;
5559;SDS011;2803;47.916;8.074;2022-09-25T11:13:51;5.17;;;3.53;;
5559;SDS011;2803;47.916;8.074;2022-09-25T11:16:22;5.77;;;3.47;;
5559;SDS011;2803;47.916;8.074;2022-09-25T11:19:10;6.90;;;3.20;;
5559;SDS011;2803;47.916;8.074;2022-09-25T11:21:40;8.53;;;4.30;;
5559;SDS011;2803;47.916;8.074;2022-09-25T11:24:12;6.37;;;3.70;;
5559;SDS011;2803;47.916;8.074;2022-09-25T11:26:44;6.23;;;3.50;;
5559;SDS011;2803;47.916;8.074;2022-09-25T11:29:14;5.63;;;3.30;;
5559;SDS011;2803;47.916;8.074;2022-09-25T11:31:50;3.30;;;2.80;;
5559;SDS011;2803;47.916;8.074;2022-09-25T11:34:22;6.10;;;3.67;;
5559;SDS011;2803;47.916;8.074;2022-09-25T11:36:59;5.83;;;3.73;;
5559;SDS011;2803;47.916;8.074;2022-09-25T11:39:32;9.80;;;3.30;;
5559;SDS011;2803;47.916;8.074;2022-09-25T11:42:17;5.43;;;3.17;;
5559;SDS011;2803;47.916;8.074;2022-09-25T11:44:53;4.97;;;3.17;;
5559;SDS011;2803;47.916;8.074;2022-09-25T11:47:27;5.90;;;3.30;;
5559;SDS011;2803;47.916;8.074;2022-09-25T11:50:02;5.03;;;3.30;;
5559;SDS011;2803;47.916;8.074;2022-09-25T11:52:36;9.00;;;3.10;;
5559;SDS011;2803;47.916;8.074;2022-09-25T11:55:14;5.47;;;3.73;;
5559;SDS011;2803;47.916;8.074;2022-09-25T11:57:54;4.50;;;3.30;;
5559;SDS011;2803;47.916;8.074;2022-09-25T12:00:32;6.00;;;3.20;;
5559;SDS011;2803;47.916;8.074;2022-09-25T12:03:15;3.60;;;3.20;;
5559;SDS011;2803;47.916;8.074;2022-09-25T12:05:56;10.80;;;4.10;;
5559;SDS011;2803;47.916;8.074;2022-09-25T12:08:38;6.57;;;4.37;;
5559;SDS011;2803;47.916;8.074;2022-09-25T12:11:20;6.73;;;3.83;;
5559;SDS011;2803;47.916;8.074;2022-09-25T12:13:53;7.60;;;4.50;;
5559;SDS011;2803;47.916;8.074;2022-09-25T12:16:26;7.43;;;4.20;;
5559;SDS011;2803;47.916;8.074;2022-09-25T12:19:06;9.37;;;5.40;;
5559;SDS011;2803;47.916;8.074;2022-09-25T12:21:41;9.43;;;4.57;;
5559;SDS011;2803;47.916;8.074;2022-09-25T12:24:16;8.63;;;4.50;;
5559;SDS011;2803;47.916;8.074;2022-09-25T12:26:54;6.80;;;4.07;;
5559;SDS011;2803;47.916;8.074;2022-09-25T12:29:29;8.30;;;4.33;;
5559;SDS011;2803;47.916;8.074;2022-09-25T12:32:05;7.67;;;4.30;;
5559;SDS011;2803;47.916;8.074;2022-09-25T12:34:47;8.10;;;4.80;;
5559;SDS011;2803;47.916;8.074;2022-09-25T12:37:31;7.33;;;3.70;;
5559;SDS011;2803;47.916;8.074;2022-09-25T12:40:10;6.80;;;3.93;;
5559;SDS011;2803;47.916;8.074;2022-09-25T12:42:45;19.43;;;5.20;;
5559;SDS011;2803;47.916;8.074;2022-09-25T12:45:18;5.17;;;3.57;;
5559;SDS011;2803;47.916;8.074;2022-09-25T12:47:53;6.20;;;4.20;;
5559;SDS011;2803;47.916;8.074;2022-09-25T12:50:31;8.00;;;4.10;;
5559;SDS011;2803;47.916;8.074;2022-09-25T12:53:04;7.90;;;4.33;;
5559;SDS011;2803;47.916;8.074;2022-09-25T12:55:42;9.00;;;4.53;;
5559;SDS011;2803;47.916;8.074;2022-09-25T12:58:14;8.40;;;3.80;;
5559;SDS011;2803;47.916;8.074;2022-09-25T13:00:45;6.67;;;4.60;;
5559;SDS011;2803;47.916;8.074;2022-09-25T13:03:16;11.83;;;5.97;;
5559;SDS011;2803;47.916;8.074;2022-09-25T13:05:56;8.43;;;4.47;;
5559;SDS011;2803;47.916;8.074;2022-09-25T13:08:31;7.30;;;4.20;;
5559;SDS011;2803;47.916;8.074;2022-09-25T13:11:02;7.10;;;4.10;;
5559;SDS011;2803;47.916;8.074;2022-09-25T13:13:35;6.63;;;4.10;;
5559;SDS011;2803;47.916;8.074;2022-09-25T13:16:09;6.60;;;4.13;;
5559;SDS011;2803;47.916;8.074;2022-09-25T13:18:40;10.03;;;3.97;;
5559;SDS011;2803;47.916;8.074;2022-09-25T13:23:57;6.67;;;4.60;;
5559;SDS011;2803;47.916;8.074;2022-09-25T13:26:24;4.83;;;3.57;;
5559;SDS011;2803;47.916;8.074;2022-09-25T13:28:52;7.47;;;3.47;;
5559;SDS011;2803;47.916;8.074;2022-09-25T13:31:23;8.00;;;4.17;;
5559;SDS011;2803;47.916;8.074;2022-09-25T13:33:52;8.07;;;4.10;;
5559;SDS011;2803;47.916;8.074;2022-09-25T13:36:30;6.60;;;4.03;;
5559;SDS011;2803;47.916;8.074;2022-09-25T13:39:02;6.20;;;4.07;;
5559;SDS011;2803;47.916;8.074;2022-09-25T13:41:46;6.77;;;4.33;;
5559;SDS011;2803;47.916;8.074;2022-09-25T13:50:16;7.00;;;4.03;;
5559;SDS011;2803;47.916;8.074;2022-09-25T13:52:52;7.37;;;3.70;;
5559;SDS011;2803;47.916;8.074;2022-09-25T13:55:41;14.70;;;4.50;;
5559;SDS011;2803;47.916;8.074;2022-09-25T13:58:29;10.30;;;4.60;;
5559;SDS011;2803;47.916;8.074;2022-09-25T14:00:57;9.13;;;4.90;;
5559;SDS011;2803;47.916;8.074;2022-09-25T14:03:27;12.70;;;4.73;;
5559;SDS011;2803;47.916;8.074;2022-09-25T14:05:56;5.90;;;3.90;;
5559;SDS011;2803;47.916;8.074;2022-09-25T14:08:25;8.20;;;5.40;;
5559;SDS011;2803;47.916;8.074;2022-09-25T14:10:55;7.90;;;5.20;;
5559;SDS011;2803;47.916;8.074;2022-09-25T14:13:24;7.33;;;4.37;;
5559;SDS011;2803;47.916;8.074;2022-09-25T14:15:53;8.90;;;5.10;;
5559;SDS011;2803;47.916;8.074;2022-09-25T14:18:24;10.65;;;5.80;;
5559;SDS011;2803;47.916;8.074;2022-09-25T14:21:00;11.30;;;6.40;;
5559;SDS011;2803;47.916;8.074;2022-09-25T14:23:31;9.90;;;5.93;;
5559;SDS011;2803;47.916;8.074;2022-09-25T14:25:59;11.87;;;6.60;;
5559;SDS011;2803;47.916;8.074;2022-09-25T14:28:27;9.10;;;7.10;;
5559;SDS011;2803;47.916;8.074;2022-09-25T14:30:59;18.63;;;7.63;;
5559;SDS011;2803;47.916;8.074;2022-09-25T14:33:47;11.47;;;7.60;;
5559;SDS011;2803;47.916;8.074;2022-09-25T14:36:22;11.40;;;6.97;;
5559;SDS011;2803;47.916;8.074;2022-09-25T14:39:07;10.10;;;7.20;;
5559;SDS011;2803;47.916;8.074;2022-09-25T14:41:49;11.37;;;7.20;;
5559;SDS011;2803;47.916;8.074;2022-09-25T14:44:44;14.13;;;6.73;;
5559;SDS011;2803;47.916;8.074;2022-09-25T14:47:21;10.43;;;7.10;;
5559;SDS011;2803;47.916;8.074;2022-09-25T14:49:51;10.80;;;6.37;;
5559;SDS011;2803;47.916;8.074;2022-09-25T14:52:19;8.10;;;6.00;;
5559;SDS011;2803;47.916;8.074;2022-09-25T14:54:51;9.43;;;5.97;;
5559;SDS011;2803;47.916;8.074;2022-09-25T14:57:23;10.43;;;6.10;;
5559;SDS011;2803;47.916;8.074;2022-09-25T14:59:52;10.57;;;6.27;;
5559;SDS011;2803;47.916;8.074;2022-09-25T15:02:22;10.80;;;6.50;;
5559;SDS011;2803;47.916;8.074;2022-09-25T15:04:56;11.80;;;7.33;;
5559;SDS011;2803;47.916;8.074;2022-09-25T15:07:24;15.87;;;6.20;;
5559;SDS011;2803;47.916;8.074;2022-09-25T15:09:53;10.83;;;5.73;;
5559;SDS011;2803;47.916;8.074;2022-09-25T15:12:23;8.20;;;4.80;;
5559;SDS011;2803;47.916;8.074;2022-09-25T15:14:59;6.37;;;3.50;;
5559;SDS011;2803;47.916;8.074;2022-09-25T15:17:27;4.00;;;2.67;;
5559;SDS011;2803;47.916;8.074;2022-09-25T15:19:53;5.33;;;3.23;;
5559;SDS011;2803;47.916;8.074;2022-09-25T15:22:23;5.10;;;3.00;;
5559;SDS011;2803;47.916;8.074;2022-09-25T15:24:57;4.70;;;3.10;;
5559;SDS011;2803;47.916;8.074;2022-09-25T15:27:26;3.53;;;2.67;;
5559;SDS011;2803;47.916;8.074;2022-09-25T15:29:54;7.07;;;3.60;;
5559;SDS011;2803;47.916;8.074;2022-09-25T15:32:22;6.37;;;3.17;;
5559;SDS011;2803;47.916;8.074;2022-09-25T15:35:03;9.17;;;2.93;;
5559;SDS011;2803;47.916;8.074;2022-09-25T15:37:32;5.90;;;3.33;;
5559;SDS011;2803;47.916;8.074;2022-09-25T15:40:01;5.33;;;2.70;;
5559;SDS011;2803;47.916;8.074;2022-09-25T15:42:43;6.03;;;3.23;;
5559;SDS011;2803;47.916;8.074;2022-09-25T15:45:26;4.50;;;3.17;;
5559;SDS011;2803;47.916;8.074;2022-09-25T15:48:00;5.30;;;3.30;;